sensor_id;sensor_type;location;lat;lon;timestamp;P1;durP1;ratioP1;P2;durP2;ratioP2
25419;SDS011;13354;48.174;11.566;2024-01-27T00:00:53;5.82;;;2.00;;
25419;SDS011;13354;48.174;11.566;2024-01-27T00:03:18;5.05;;;1.77;;
25419;SDS011;13354;48.174;11.566;2024-01-27T00:05:44;5.43;;;1.95;;
25419;SDS011;13354;48.174;11.566;2024-01-27T00:08:09;3.15;;;1.60;;
25419;SDS011;13354;48.174;11.566;2024-01-27T00:10:35;5.68;;;2.10;;
25419;SDS011;13354;48.174;11.566;2024-01-27T00:13:00;5.22;;;2.00;;
25419;SDS011;13354;48.174;11.566;2024-01-27T00:15:25;4.70;;;1.58;;
25419;SDS011;13354;48.174;11.566;2024-01-27T00:17:51;4.50;;;1.90;;
25419;SDS011;13354;48.174;11.566;2024-01-27T00:20:16;5.15;;;1.55;;
25419;SDS011;13354;48.174;11.566;2024-01-27T00:22:41;3.75;;;2.05;;
25419;SDS011;13354;48.174;11.566;2024-01-27T00:25:07;6.53;;;1.77;;
25419;SDS011;13354;48.174;11.566;2024-01-27T00:27:32;3.53;;;1.60;;
25419;SDS011;13354;48.174;11.566;2024-01-27T00:29:57;6.07;;;2.05;;
25419;SDS011;13354;48.174;11.566;2024-01-27T00:32:23;3.63;;;1.70;;
25419;SDS011;13354;48.174;11.566;2024-01-27T00:34:48;6.22;;;2.03;;
25419;SDS011;13354;48.174;11.566;2024-01-27T00:37:13;6.32;;;1.80;;
25419;SDS011;13354;48.174;11.566;2024-01-27T00:39:39;4.63;;;1.55;;
25419;SDS011;13354;48.174;11.566;2024-01-27T00:42:05;6.03;;;2.00;;
25419;SDS011;13354;48.174;11.566;2024-01-27T00:44:30;6.60;;;1.70;;
25419;SDS011;13354;48.174;11.566;2024-01-27T00:46:56;6.47;;;1.50;;
25419;SDS011;13354;48.174;11.566;2024-01-27T00:49:21;3.55;;;1.45;;
25419;SDS011;13354;48.174;11.566;2024-01-27T00:51:46;2.78;;;1.38;;
25419;SDS011;13354;48.174;11.566;2024-01-27T00:54:12;3.67;;;1.63;;
25419;SDS011;13354;48.174;11.566;2024-01-27T00:56:37;5.03;;;1.50;;
25419;SDS011;13354;48.174;11.566;2024-01-27T00:59:03;2.97;;;1.50;;
25419;SDS011;13354;48.174;11.566;2024-01-27T01:01:28;3.85;;;1.38;;
25419;SDS011;13354;48.174;11.566;2024-01-27T01:03:53;3.30;;;1.70;;
25419;SDS011;13354;48.174;11.566;2024-01-27T01:06:19;3.33;;;1.58;;
25419;SDS011;13354;48.174;11.566;2024-01-27T01:08:44;3.95;;;1.63;;
25419;SDS011;13354;48.174;11.566;2024-01-27T01:11:09;2.97;;;1.70;;
25419;SDS011;13354;48.174;11.566;2024-01-27T01:13:35;4.00;;;1.45;;
25419;SDS011;13354;48.174;11.566;2024-01-27T01:16:00;2.97;;;1.75;;
25419;SDS011;13354;48.174;11.566;2024-01-27T01:18:26;3.83;;;1.45;;
25419;SDS011;13354;48.174;11.566;2024-01-27T01:20:51;6.22;;;1.80;;
25419;SDS011;13354;48.174;11.566;2024-01-27T01:23:16;5.47;;;2.17;;
25419;SDS011;13354;48.174;11.566;2024-01-27T01:25:42;4.70;;;1.40;;
25419;SDS011;13354;48.174;11.566;2024-01-27T01:28:07;4.97;;;1.80;;
25419;SDS011;13354;48.174;11.566;2024-01-27T01:30:33;4.20;;;1.65;;
25419;SDS011;13354;48.174;11.566;2024-01-27T01:32:58;3.20;;;1.65;;
25419;SDS011;13354;48.174;11.566;2024-01-27T01:35:24;3.35;;;1.52;;
25419;SDS011;13354;48.174;11.566;2024-01-27T01:37:50;4.20;;;1.65;;
25419;SDS011;13354;48.174;11.566;2024-01-27T01:40:16;4.53;;;1.63;;
25419;SDS011;13354;48.174;11.566;2024-01-27T01:42:42;5.45;;;1.70;;
25419;SDS011;13354;48.174;11.566;2024-01-27T01:45:09;4.80;;;1.70;;
25419;SDS011;13354;48.174;11.566;2024-01-27T01:47:37;2.15;;;1.88;;
25419;SDS011;13354;48.174;11.566;2024-01-27T01:50:04;4.68;;;1.70;;
25419;SDS011;13354;48.174;11.566;2024-01-27T01:52:31;4.40;;;1.40;;
25419;SDS011;13354;48.174;11.566;2024-01-27T01:54:56;3.47;;;1.70;;
25419;SDS011;13354;48.174;11.566;2024-01-27T01:57:22;5.47;;;1.83;;
25419;SDS011;13354;48.174;11.566;2024-01-27T01:59:47;3.00;;;1.67;;
25419;SDS011;13354;48.174;11.566;2024-01-27T02:02:13;5.45;;;2.08;;
25419;SDS011;13354;48.174;11.566;2024-01-27T02:04:39;5.30;;;1.90;;
25419;SDS011;13354;48.174;11.566;2024-01-27T02:07:08;4.15;;;1.77;;
25419;SDS011;13354;48.174;11.566;2024-01-27T02:09:34;5.15;;;1.77;;
25419;SDS011;13354;48.174;11.566;2024-01-27T02:11:59;4.07;;;1.83;;
25419;SDS011;13354;48.174;11.566;2024-01-27T02:14:25;6.43;;;1.88;;
25419;SDS011;13354;48.174;11.566;2024-01-27T02:16:52;4.72;;;1.58;;
25419;SDS011;13354;48.174;11.566;2024-01-27T02:19:18;4.55;;;1.52;;
25419;SDS011;13354;48.174;11.566;2024-01-27T02:21:44;4.10;;;1.80;;
25419;SDS011;13354;48.174;11.566;2024-01-27T02:24:09;4.45;;;1.38;;
25419;SDS011;13354;48.174;11.566;2024-01-27T02:26:35;6.20;;;1.90;;
25419;SDS011;13354;48.174;11.566;2024-01-27T02:29:01;4.07;;;1.60;;
25419;SDS011;13354;48.174;11.566;2024-01-27T02:31:26;3.25;;;1.67;;
25419;SDS011;13354;48.174;11.566;2024-01-27T02:33:52;4.53;;;1.40;;
25419;SDS011;13354;48.174;11.566;2024-01-27T02:36:17;4.03;;;1.50;;
25419;SDS011;13354;48.174;11.566;2024-01-27T02:38:43;7.05;;;1.73;;
25419;SDS011;13354;48.174;11.566;2024-01-27T02:41:11;5.03;;;1.85;;
25419;SDS011;13354;48.174;11.566;2024-01-27T02:43:37;4.80;;;1.83;;
25419;SDS011;13354;48.174;11.566;2024-01-27T02:46:11;4.68;;;1.45;;
25419;SDS011;13354;48.174;11.566;2024-01-27T02:48:40;3.85;;;1.17;;
25419;SDS011;13354;48.174;11.566;2024-01-27T02:51:08;3.03;;;1.50;;
25419;SDS011;13354;48.174;11.566;2024-01-27T02:53:34;3.50;;;1.63;;
25419;SDS011;13354;48.174;11.566;2024-01-27T02:56:00;2.65;;;1.13;;
25419;SDS011;13354;48.174;11.566;2024-01-27T02:58:25;5.40;;;1.58;;
25419;SDS011;13354;48.174;11.566;2024-01-27T03:00:50;6.72;;;1.80;;
25419;SDS011;13354;48.174;11.566;2024-01-27T03:03:16;3.85;;;1.52;;
25419;SDS011;13354;48.174;11.566;2024-01-27T03:05:42;4.28;;;1.40;;
25419;SDS011;13354;48.174;11.566;2024-01-27T03:08:07;4.38;;;1.60;;
25419;SDS011;13354;48.174;11.566;2024-01-27T03:10:33;6.38;;;1.42;;
25419;SDS011;13354;48.174;11.566;2024-01-27T03:12:58;4.13;;;1.65;;
25419;SDS011;13354;48.174;11.566;2024-01-27T03:15:24;5.05;;;1.60;;
25419;SDS011;13354;48.174;11.566;2024-01-27T03:17:49;11.13;;;1.85;;
25419;SDS011;13354;48.174;11.566;2024-01-27T03:20:15;4.47;;;1.65;;
25419;SDS011;13354;48.174;11.566;2024-01-27T03:22:40;4.10;;;1.42;;
25419;SDS011;13354;48.174;11.566;2024-01-27T03:25:07;4.07;;;1.30;;
25419;SDS011;13354;48.174;11.566;2024-01-27T03:27:33;4.15;;;1.77;;
25419;SDS011;13354;48.174;11.566;2024-01-27T03:30:00;5.68;;;1.52;;
25419;SDS011;13354;48.174;11.566;2024-01-27T03:32:28;7.35;;;1.67;;
25419;SDS011;13354;48.174;11.566;2024-01-27T03:34:57;4.65;;;1.65;;
25419;SDS011;13354;48.174;11.566;2024-01-27T03:37:24;5.38;;;1.55;;
25419;SDS011;13354;48.174;11.566;2024-01-27T03:39:49;2.38;;;1.58;;
25419;SDS011;13354;48.174;11.566;2024-01-27T03:42:17;3.70;;;1.85;;
25419;SDS011;13354;48.174;11.566;2024-01-27T03:44:46;4.70;;;1.63;;
25419;SDS011;13354;48.174;11.566;2024-01-27T03:47:12;3.63;;;1.30;;
25419;SDS011;13354;48.174;11.566;2024-01-27T03:49:39;3.92;;;1.50;;
25419;SDS011;13354;48.174;11.566;2024-01-27T03:52:04;5.18;;;1.95;;
25419;SDS011;13354;48.174;11.566;2024-01-27T03:54:30;2.25;;;1.30;;
25419;SDS011;13354;48.174;11.566;2024-01-27T03:56:56;3.17;;;1.50;;
25419;SDS011;13354;48.174;11.566;2024-01-27T03:59:21;2.83;;;1.52;;
25419;SDS011;13354;48.174;11.566;2024-01-27T04:01:47;6.03;;;1.50;;
25419;SDS011;13354;48.174;11.566;2024-01-27T04:04:12;4.75;;;1.60;;
25419;SDS011;13354;48.174;11.566;2024-01-27T04:06:41;6.03;;;1.90;;
25419;SDS011;13354;48.174;11.566;2024-01-27T04:09:07;6.45;;;1.85;;
25419;SDS011;13354;48.174;11.566;2024-01-27T04:11:34;6.43;;;1.45;;
25419;SDS011;13354;48.174;11.566;2024-01-27T04:14:01;4.15;;;1.30;;
25419;SDS011;13354;48.174;11.566;2024-01-27T04:16:27;5.70;;;1.58;;
25419;SDS011;13354;48.174;11.566;2024-01-27T04:18:52;8.55;;;1.90;;
25419;SDS011;13354;48.174;11.566;2024-01-27T04:21:17;5.53;;;1.63;;
25419;SDS011;13354;48.174;11.566;2024-01-27T04:23:43;6.43;;;1.48;;
25419;SDS011;13354;48.174;11.566;2024-01-27T04:26:08;4.78;;;1.67;;
25419;SDS011;13354;48.174;11.566;2024-01-27T04:28:35;4.22;;;1.58;;
25419;SDS011;13354;48.174;11.566;2024-01-27T04:31:01;6.20;;;1.95;;
25419;SDS011;13354;48.174;11.566;2024-01-27T04:33:26;3.10;;;1.50;;
25419;SDS011;13354;48.174;11.566;2024-01-27T04:35:51;4.55;;;1.65;;
25419;SDS011;13354;48.174;11.566;2024-01-27T04:38:17;7.25;;;1.98;;
25419;SDS011;13354;48.174;11.566;2024-01-27T04:40:42;3.67;;;1.42;;
25419;SDS011;13354;48.174;11.566;2024-01-27T04:43:08;5.78;;;1.85;;
25419;SDS011;13354;48.174;11.566;2024-01-27T04:45:33;5.70;;;1.50;;
25419;SDS011;13354;48.174;11.566;2024-01-27T04:47:59;6.00;;;2.15;;
25419;SDS011;13354;48.174;11.566;2024-01-27T04:50:26;3.78;;;1.52;;
25419;SDS011;13354;48.174;11.566;2024-01-27T04:52:52;5.43;;;1.60;;
25419;SDS011;13354;48.174;11.566;2024-01-27T04:55:18;5.47;;;1.60;;
25419;SDS011;13354;48.174;11.566;2024-01-27T04:57:43;6.88;;;1.98;;
25419;SDS011;13354;48.174;11.566;2024-01-27T05:00:09;2.90;;;1.48;;
25419;SDS011;13354;48.174;11.566;2024-01-27T05:02:38;6.82;;;1.73;;
25419;SDS011;13354;48.174;11.566;2024-01-27T05:05:05;3.97;;;1.73;;
25419;SDS011;13354;48.174;11.566;2024-01-27T05:07:31;5.13;;;1.80;;
25419;SDS011;13354;48.174;11.566;2024-01-27T05:09:57;5.72;;;1.83;;
25419;SDS011;13354;48.174;11.566;2024-01-27T05:12:22;5.35;;;1.63;;
25419;SDS011;13354;48.174;11.566;2024-01-27T05:14:48;5.05;;;1.98;;
25419;SDS011;13354;48.174;11.566;2024-01-27T05:17:13;9.80;;;2.65;;
25419;SDS011;13354;48.174;11.566;2024-01-27T05:19:39;4.32;;;1.80;;
25419;SDS011;13354;48.174;11.566;2024-01-27T05:22:04;4.53;;;1.65;;
25419;SDS011;13354;48.174;11.566;2024-01-27T05:24:29;6.38;;;1.92;;
25419;SDS011;13354;48.174;11.566;2024-01-27T05:26:55;4.03;;;2.10;;
25419;SDS011;13354;48.174;11.566;2024-01-27T05:29:21;5.13;;;1.92;;
25419;SDS011;13354;48.174;11.566;2024-01-27T05:31:47;6.45;;;1.55;;
25419;SDS011;13354;48.174;11.566;2024-01-27T05:34:12;5.10;;;2.10;;
25419;SDS011;13354;48.174;11.566;2024-01-27T05:36:37;7.65;;;2.00;;
25419;SDS011;13354;48.174;11.566;2024-01-27T05:39:03;6.90;;;2.03;;
25419;SDS011;13354;48.174;11.566;2024-01-27T05:41:29;6.63;;;2.10;;
25419;SDS011;13354;48.174;11.566;2024-01-27T05:43:55;8.00;;;2.17;;
25419;SDS011;13354;48.174;11.566;2024-01-27T05:46:22;5.07;;;1.95;;
25419;SDS011;13354;48.174;11.566;2024-01-27T05:48:49;5.97;;;1.80;;
25419;SDS011;13354;48.174;11.566;2024-01-27T05:51:16;3.65;;;1.60;;
25419;SDS011;13354;48.174;11.566;2024-01-27T05:53:41;3.97;;;2.03;;
25419;SDS011;13354;48.174;11.566;2024-01-27T05:56:07;8.20;;;2.20;;
25419;SDS011;13354;48.174;11.566;2024-01-27T05:58:32;7.45;;;2.30;;
25419;SDS011;13354;48.174;11.566;2024-01-27T06:00:57;12.30;;;9.65;;
25419;SDS011;13354;48.174;11.566;2024-01-27T06:03:23;8.88;;;3.58;;
25419;SDS011;13354;48.174;11.566;2024-01-27T06:05:49;5.00;;;2.15;;
25419;SDS011;13354;48.174;11.566;2024-01-27T06:08:14;7.60;;;2.58;;
25419;SDS011;13354;48.174;11.566;2024-01-27T06:10:40;5.63;;;1.95;;
25419;SDS011;13354;48.174;11.566;2024-01-27T06:13:05;8.13;;;2.50;;
25419;SDS011;13354;48.174;11.566;2024-01-27T06:15:31;6.93;;;2.15;;
25419;SDS011;13354;48.174;11.566;2024-01-27T06:17:56;3.65;;;1.63;;
25419;SDS011;13354;48.174;11.566;2024-01-27T06:20:25;5.32;;;1.98;;
25419;SDS011;13354;48.174;11.566;2024-01-27T06:22:50;5.45;;;1.88;;
25419;SDS011;13354;48.174;11.566;2024-01-27T06:25:17;8.77;;;2.10;;
25419;SDS011;13354;48.174;11.566;2024-01-27T06:27:42;6.13;;;2.15;;
25419;SDS011;13354;48.174;11.566;2024-01-27T06:30:08;6.72;;;2.47;;
25419;SDS011;13354;48.174;11.566;2024-01-27T06:32:35;3.58;;;2.00;;
25419;SDS011;13354;48.174;11.566;2024-01-27T06:35:01;6.88;;;2.28;;
25419;SDS011;13354;48.174;11.566;2024-01-27T06:37:27;9.27;;;2.65;;
25419;SDS011;13354;48.174;11.566;2024-01-27T06:39:53;4.97;;;1.90;;
25419;SDS011;13354;48.174;11.566;2024-01-27T06:42:18;5.28;;;2.28;;
25419;SDS011;13354;48.174;11.566;2024-01-27T06:44:44;5.65;;;2.22;;
25419;SDS011;13354;48.174;11.566;2024-01-27T06:47:09;4.10;;;2.33;;
25419;SDS011;13354;48.174;11.566;2024-01-27T06:49:35;5.03;;;2.25;;
25419;SDS011;13354;48.174;11.566;2024-01-27T06:52:00;6.25;;;2.15;;
25419;SDS011;13354;48.174;11.566;2024-01-27T06:54:26;6.93;;;2.53;;
25419;SDS011;13354;48.174;11.566;2024-01-27T06:56:51;7.50;;;2.47;;
25419;SDS011;13354;48.174;11.566;2024-01-27T06:59:17;5.07;;;2.60;;
25419;SDS011;13354;48.174;11.566;2024-01-27T07:01:45;37.58;;;21.70;;
25419;SDS011;13354;48.174;11.566;2024-01-27T07:04:14;43.03;;;28.98;;
25419;SDS011;13354;48.174;11.566;2024-01-27T07:06:40;17.05;;;8.88;;
25419;SDS011;13354;48.174;11.566;2024-01-27T07:09:05;7.47;;;3.60;;
25419;SDS011;13354;48.174;11.566;2024-01-27T07:11:34;10.20;;;3.60;;
25419;SDS011;13354;48.174;11.566;2024-01-27T07:14:01;11.85;;;2.80;;
25419;SDS011;13354;48.174;11.566;2024-01-27T07:16:27;8.15;;;2.67;;
25419;SDS011;13354;48.174;11.566;2024-01-27T07:18:53;6.03;;;2.75;;
25419;SDS011;13354;48.174;11.566;2024-01-27T07:21:18;10.43;;;2.95;;
25419;SDS011;13354;48.174;11.566;2024-01-27T07:23:43;4.57;;;2.78;;
25419;SDS011;13354;48.174;11.566;2024-01-27T07:26:09;6.38;;;2.75;;
25419;SDS011;13354;48.174;11.566;2024-01-27T07:28:35;5.82;;;2.38;;
25419;SDS011;13354;48.174;11.566;2024-01-27T07:31:01;8.70;;;2.65;;
25419;SDS011;13354;48.174;11.566;2024-01-27T07:33:26;7.85;;;2.55;;
25419;SDS011;13354;48.174;11.566;2024-01-27T07:35:52;9.13;;;3.80;;
25419;SDS011;13354;48.174;11.566;2024-01-27T07:38:17;5.18;;;2.80;;
25419;SDS011;13354;48.174;11.566;2024-01-27T07:40:43;6.30;;;2.75;;
25419;SDS011;13354;48.174;11.566;2024-01-27T07:43:08;6.53;;;3.15;;
25419;SDS011;13354;48.174;11.566;2024-01-27T07:45:34;6.45;;;2.97;;
25419;SDS011;13354;48.174;11.566;2024-01-27T07:47:59;7.93;;;3.53;;
25419;SDS011;13354;48.174;11.566;2024-01-27T07:50:24;6.15;;;2.92;;
25419;SDS011;13354;48.174;11.566;2024-01-27T07:52:50;7.70;;;3.20;;
25419;SDS011;13354;48.174;11.566;2024-01-27T07:55:15;6.78;;;2.60;;
25419;SDS011;13354;48.174;11.566;2024-01-27T07:57:42;10.02;;;3.67;;
25419;SDS011;13354;48.174;11.566;2024-01-27T08:00:08;6.55;;;2.83;;
25419;SDS011;13354;48.174;11.566;2024-01-27T08:02:34;5.22;;;2.92;;
25419;SDS011;13354;48.174;11.566;2024-01-27T08:04:59;8.80;;;3.15;;
25419;SDS011;13354;48.174;11.566;2024-01-27T08:07:25;10.23;;;3.90;;
25419;SDS011;13354;48.174;11.566;2024-01-27T08:09:50;7.07;;;3.08;;
25419;SDS011;13354;48.174;11.566;2024-01-27T08:12:15;9.05;;;3.75;;
25419;SDS011;13354;48.174;11.566;2024-01-27T08:14:41;7.97;;;3.40;;
25419;SDS011;13354;48.174;11.566;2024-01-27T08:17:06;6.22;;;3.05;;
25419;SDS011;13354;48.174;11.566;2024-01-27T08:19:31;7.63;;;2.95;;
25419;SDS011;13354;48.174;11.566;2024-01-27T08:21:57;10.35;;;3.15;;
25419;SDS011;13354;48.174;11.566;2024-01-27T08:24:23;8.93;;;3.47;;
25419;SDS011;13354;48.174;11.566;2024-01-27T08:26:49;6.05;;;3.13;;
25419;SDS011;13354;48.174;11.566;2024-01-27T08:29:15;7.18;;;3.15;;
25419;SDS011;13354;48.174;11.566;2024-01-27T08:31:40;9.20;;;3.28;;
25419;SDS011;13354;48.174;11.566;2024-01-27T08:34:06;9.02;;;3.13;;
25419;SDS011;13354;48.174;11.566;2024-01-27T08:36:31;9.07;;;3.72;;
25419;SDS011;13354;48.174;11.566;2024-01-27T08:38:59;10.82;;;3.50;;
25419;SDS011;13354;48.174;11.566;2024-01-27T08:41:24;7.47;;;3.83;;
25419;SDS011;13354;48.174;11.566;2024-01-27T08:43:50;4.50;;;3.20;;
25419;SDS011;13354;48.174;11.566;2024-01-27T08:46:16;7.45;;;3.75;;
25419;SDS011;13354;48.174;11.566;2024-01-27T08:48:43;8.82;;;3.58;;
25419;SDS011;13354;48.174;11.566;2024-01-27T08:51:09;9.77;;;3.22;;
25419;SDS011;13354;48.174;11.566;2024-01-27T08:53:35;5.82;;;3.05;;
25419;SDS011;13354;48.174;11.566;2024-01-27T08:56:01;10.20;;;3.00;;
25419;SDS011;13354;48.174;11.566;2024-01-27T08:58:26;6.50;;;3.20;;
25419;SDS011;13354;48.174;11.566;2024-01-27T09:00:52;7.63;;;2.53;;
25419;SDS011;13354;48.174;11.566;2024-01-27T09:03:18;10.68;;;3.30;;
25419;SDS011;13354;48.174;11.566;2024-01-27T09:05:45;8.52;;;2.80;;
25419;SDS011;13354;48.174;11.566;2024-01-27T09:08:11;4.30;;;2.47;;
25419;SDS011;13354;48.174;11.566;2024-01-27T09:10:37;8.07;;;3.35;;
25419;SDS011;13354;48.174;11.566;2024-01-27T09:13:02;6.68;;;2.88;;
25419;SDS011;13354;48.174;11.566;2024-01-27T09:15:27;5.97;;;3.80;;
25419;SDS011;13354;48.174;11.566;2024-01-27T09:17:53;9.85;;;3.65;;
25419;SDS011;13354;48.174;11.566;2024-01-27T09:20:19;10.18;;;3.17;;
25419;SDS011;13354;48.174;11.566;2024-01-27T09:22:44;8.82;;;3.10;;
25419;SDS011;13354;48.174;11.566;2024-01-27T09:25:12;6.28;;;3.05;;
25419;SDS011;13354;48.174;11.566;2024-01-27T09:27:38;7.85;;;2.80;;
25419;SDS011;13354;48.174;11.566;2024-01-27T09:30:04;9.68;;;3.22;;
25419;SDS011;13354;48.174;11.566;2024-01-27T09:32:32;9.98;;;3.65;;
25419;SDS011;13354;48.174;11.566;2024-01-27T09:34:57;9.25;;;3.00;;
25419;SDS011;13354;48.174;11.566;2024-01-27T09:37:23;6.60;;;2.75;;
25419;SDS011;13354;48.174;11.566;2024-01-27T09:39:48;8.88;;;3.00;;
25419;SDS011;13354;48.174;11.566;2024-01-27T09:42:14;6.75;;;2.97;;
25419;SDS011;13354;48.174;11.566;2024-01-27T09:44:43;10.10;;;3.00;;
25419;SDS011;13354;48.174;11.566;2024-01-27T09:47:12;8.35;;;3.03;;
25419;SDS011;13354;48.174;11.566;2024-01-27T09:49:39;8.80;;;3.55;;
25419;SDS011;13354;48.174;11.566;2024-01-27T09:52:06;6.75;;;2.70;;
25419;SDS011;13354;48.174;11.566;2024-01-27T09:54:31;8.52;;;2.83;;
25419;SDS011;13354;48.174;11.566;2024-01-27T09:56:57;7.13;;;2.78;;
25419;SDS011;13354;48.174;11.566;2024-01-27T09:59:24;8.60;;;3.38;;
25419;SDS011;13354;48.174;11.566;2024-01-27T10:01:50;11.95;;;3.35;;
25419;SDS011;13354;48.174;11.566;2024-01-27T10:04:19;8.70;;;2.88;;
25419;SDS011;13354;48.174;11.566;2024-01-27T10:06:45;8.82;;;3.10;;
25419;SDS011;13354;48.174;11.566;2024-01-27T10:09:12;7.20;;;2.88;;
25419;SDS011;13354;48.174;11.566;2024-01-27T10:11:37;7.72;;;2.90;;
25419;SDS011;13354;48.174;11.566;2024-01-27T10:14:07;11.43;;;3.05;;
25419;SDS011;13354;48.174;11.566;2024-01-27T10:16:39;9.65;;;3.17;;
25419;SDS011;13354;48.174;11.566;2024-01-27T10:19:06;8.20;;;3.10;;
25419;SDS011;13354;48.174;11.566;2024-01-27T10:21:40;7.80;;;2.97;;
25419;SDS011;13354;48.174;11.566;2024-01-27T10:24:05;10.00;;;2.95;;
25419;SDS011;13354;48.174;11.566;2024-01-27T10:26:31;12.18;;;3.22;;
25419;SDS011;13354;48.174;11.566;2024-01-27T10:28:57;9.68;;;4.07;;
25419;SDS011;13354;48.174;11.566;2024-01-27T10:31:29;7.07;;;2.72;;
25419;SDS011;13354;48.174;11.566;2024-01-27T10:33:56;6.65;;;2.83;;
25419;SDS011;13354;48.174;11.566;2024-01-27T10:36:23;9.05;;;2.90;;
25419;SDS011;13354;48.174;11.566;2024-01-27T10:38:49;8.95;;;3.20;;
25419;SDS011;13354;48.174;11.566;2024-01-27T10:41:23;8.02;;;3.03;;
25419;SDS011;13354;48.174;11.566;2024-01-27T10:43:51;8.13;;;2.85;;
25419;SDS011;13354;48.174;11.566;2024-01-27T10:46:20;7.85;;;2.67;;
25419;SDS011;13354;48.174;11.566;2024-01-27T10:48:51;8.25;;;3.00;;
25419;SDS011;13354;48.174;11.566;2024-01-27T10:51:18;7.18;;;2.70;;
25419;SDS011;13354;48.174;11.566;2024-01-27T10:53:49;7.13;;;2.70;;
25419;SDS011;13354;48.174;11.566;2024-01-27T10:56:18;7.25;;;2.60;;
25419;SDS011;13354;48.174;11.566;2024-01-27T10:58:44;6.78;;;2.80;;
25419;SDS011;13354;48.174;11.566;2024-01-27T11:01:12;9.80;;;3.13;;
25419;SDS011;13354;48.174;11.566;2024-01-27T11:03:38;8.45;;;3.05;;
25419;SDS011;13354;48.174;11.566;2024-01-27T11:06:05;9.60;;;3.25;;
25419;SDS011;13354;48.174;11.566;2024-01-27T11:08:31;7.38;;;2.35;;
25419;SDS011;13354;48.174;11.566;2024-01-27T11:10:58;6.70;;;2.20;;
25419;SDS011;13354;48.174;11.566;2024-01-27T11:13:24;6.50;;;2.42;;
25419;SDS011;13354;48.174;11.566;2024-01-27T11:15:53;4.68;;;2.40;;
25419;SDS011;13354;48.174;11.566;2024-01-27T11:18:19;7.57;;;1.98;;
25419;SDS011;13354;48.174;11.566;2024-01-27T11:20:44;6.88;;;2.17;;
25419;SDS011;13354;48.174;11.566;2024-01-27T11:23:10;8.82;;;2.67;;
25419;SDS011;13354;48.174;11.566;2024-01-27T11:25:37;6.72;;;2.30;;
25419;SDS011;13354;48.174;11.566;2024-01-27T11:28:10;7.47;;;2.45;;
25419;SDS011;13354;48.174;11.566;2024-01-27T11:30:38;6.47;;;2.30;;
25419;SDS011;13354;48.174;11.566;2024-01-27T11:33:05;6.28;;;2.53;;
25419;SDS011;13354;48.174;11.566;2024-01-27T11:35:31;6.18;;;2.85;;
25419;SDS011;13354;48.174;11.566;2024-01-27T11:37:57;9.40;;;2.70;;
25419;SDS011;13354;48.174;11.566;2024-01-27T11:40:22;8.50;;;2.88;;
25419;SDS011;13354;48.174;11.566;2024-01-27T11:42:57;6.57;;;2.80;;
25419;SDS011;13354;48.174;11.566;2024-01-27T11:45:24;6.10;;;2.47;;
25419;SDS011;13354;48.174;11.566;2024-01-27T11:47:50;9.10;;;2.17;;
25419;SDS011;13354;48.174;11.566;2024-01-27T11:50:19;8.07;;;2.67;;
25419;SDS011;13354;48.174;11.566;2024-01-27T11:52:45;8.63;;;2.10;;
25419;SDS011;13354;48.174;11.566;2024-01-27T11:55:11;7.30;;;2.30;;
25419;SDS011;13354;48.174;11.566;2024-01-27T11:57:36;6.68;;;2.30;;
25419;SDS011;13354;48.174;11.566;2024-01-27T12:00:02;8.23;;;1.85;;
25419;SDS011;13354;48.174;11.566;2024-01-27T12:02:28;4.40;;;1.83;;
25419;SDS011;13354;48.174;11.566;2024-01-27T12:04:53;7.15;;;2.15;;
25419;SDS011;13354;48.174;11.566;2024-01-27T12:07:19;7.45;;;1.80;;
25419;SDS011;13354;48.174;11.566;2024-01-27T12:09:45;6.88;;;2.08;;
25419;SDS011;13354;48.174;11.566;2024-01-27T12:12:11;5.43;;;2.38;;
25419;SDS011;13354;48.174;11.566;2024-01-27T12:14:41;8.57;;;2.20;;
25419;SDS011;13354;48.174;11.566;2024-01-27T12:17:09;7.38;;;2.30;;
25419;SDS011;13354;48.174;11.566;2024-01-27T12:19:35;4.38;;;1.80;;
25419;SDS011;13354;48.174;11.566;2024-01-27T12:22:01;6.57;;;2.33;;
25419;SDS011;13354;48.174;11.566;2024-01-27T12:24:27;4.28;;;2.10;;
25419;SDS011;13354;48.174;11.566;2024-01-27T12:26:52;4.65;;;1.95;;
25419;SDS011;13354;48.174;11.566;2024-01-27T12:29:20;7.32;;;2.40;;
25419;SDS011;13354;48.174;11.566;2024-01-27T12:31:46;6.97;;;2.20;;
25419;SDS011;13354;48.174;11.566;2024-01-27T12:34:11;7.40;;;2.40;;
25419;SDS011;13354;48.174;11.566;2024-01-27T12:36:42;8.10;;;2.05;;
25419;SDS011;13354;48.174;11.566;2024-01-27T12:39:08;6.68;;;2.35;;
25419;SDS011;13354;48.174;11.566;2024-01-27T12:41:34;6.20;;;1.92;;
25419;SDS011;13354;48.174;11.566;2024-01-27T12:44:00;6.60;;;2.42;;
25419;SDS011;13354;48.174;11.566;2024-01-27T12:46:26;4.65;;;2.00;;
25419;SDS011;13354;48.174;11.566;2024-01-27T12:48:53;5.90;;;2.22;;
25419;SDS011;13354;48.174;11.566;2024-01-27T12:51:18;6.13;;;2.00;;
25419;SDS011;13354;48.174;11.566;2024-01-27T12:53:44;7.80;;;2.17;;
25419;SDS011;13354;48.174;11.566;2024-01-27T12:56:13;5.00;;;2.13;;
25419;SDS011;13354;48.174;11.566;2024-01-27T12:58:40;6.18;;;2.00;;
25419;SDS011;13354;48.174;11.566;2024-01-27T13:01:06;6.22;;;2.08;;
25419;SDS011;13354;48.174;11.566;2024-01-27T13:03:33;4.13;;;1.80;;
25419;SDS011;13354;48.174;11.566;2024-01-27T13:05:59;5.53;;;1.80;;
25419;SDS011;13354;48.174;11.566;2024-01-27T13:08:24;5.00;;;2.22;;
25419;SDS011;13354;48.174;11.566;2024-01-27T13:10:50;10.82;;;2.20;;
25419;SDS011;13354;48.174;11.566;2024-01-27T13:13:15;3.35;;;1.85;;
25419;SDS011;13354;48.174;11.566;2024-01-27T13:15:41;6.30;;;1.77;;
25419;SDS011;13354;48.174;11.566;2024-01-27T13:18:08;3.83;;;1.40;;
25419;SDS011;13354;48.174;11.566;2024-01-27T13:20:35;4.93;;;1.77;;
25419;SDS011;13354;48.174;11.566;2024-01-27T13:23:01;6.88;;;2.03;;
25419;SDS011;13354;48.174;11.566;2024-01-27T13:25:26;4.28;;;1.48;;
25419;SDS011;13354;48.174;11.566;2024-01-27T13:27:51;4.63;;;1.45;;
25419;SDS011;13354;48.174;11.566;2024-01-27T13:30:17;7.22;;;1.67;;
25419;SDS011;13354;48.174;11.566;2024-01-27T13:32:42;7.18;;;1.92;;
25419;SDS011;13354;48.174;11.566;2024-01-27T13:35:08;5.65;;;1.63;;
25419;SDS011;13354;48.174;11.566;2024-01-27T13:37:34;5.53;;;1.80;;
25419;SDS011;13354;48.174;11.566;2024-01-27T13:40:00;5.90;;;2.10;;
25419;SDS011;13354;48.174;11.566;2024-01-27T13:42:26;5.57;;;1.70;;
25419;SDS011;13354;48.174;11.566;2024-01-27T13:44:52;9.80;;;1.85;;
25419;SDS011;13354;48.174;11.566;2024-01-27T13:47:17;5.93;;;1.70;;
25419;SDS011;13354;48.174;11.566;2024-01-27T13:49:44;6.55;;;2.03;;
25419;SDS011;13354;48.174;11.566;2024-01-27T13:52:09;6.45;;;1.70;;
25419;SDS011;13354;48.174;11.566;2024-01-27T13:54:36;6.53;;;1.77;;
25419;SDS011;13354;48.174;11.566;2024-01-27T13:57:02;6.40;;;2.13;;
25419;SDS011;13354;48.174;11.566;2024-01-27T13:59:27;4.00;;;1.60;;
25419;SDS011;13354;48.174;11.566;2024-01-27T14:01:53;4.95;;;1.88;;
25419;SDS011;13354;48.174;11.566;2024-01-27T14:04:21;3.85;;;1.80;;
25419;SDS011;13354;48.174;11.566;2024-01-27T14:06:47;5.68;;;1.70;;
25419;SDS011;13354;48.174;11.566;2024-01-27T14:09:12;4.22;;;1.75;;
25419;SDS011;13354;48.174;11.566;2024-01-27T14:11:41;5.40;;;1.83;;
25419;SDS011;13354;48.174;11.566;2024-01-27T14:14:06;4.43;;;1.83;;
25419;SDS011;13354;48.174;11.566;2024-01-27T14:16:31;3.72;;;1.50;;
25419;SDS011;13354;48.174;11.566;2024-01-27T14:18:57;4.03;;;1.90;;
25419;SDS011;13354;48.174;11.566;2024-01-27T14:21:22;4.75;;;1.92;;
25419;SDS011;13354;48.174;11.566;2024-01-27T14:23:48;6.18;;;1.73;;
25419;SDS011;13354;48.174;11.566;2024-01-27T14:26:14;6.95;;;1.75;;